createdAt,value
2019-02-08T00:00:53.865Z,2.02
2019-02-08T00:01:39.748Z,1.75
2019-02-08T00:02:25.934Z,1.90
2019-02-08T00:03:12.042Z,1.77
2019-02-08T00:03:58.007Z,1.55
2019-02-08T00:04:43.968Z,1.57
2019-02-08T00:05:30.134Z,2.37
2019-02-08T00:06:15.839Z,1.90
2019-02-08T00:07:01.965Z,1.75
2019-02-08T00:07:48.177Z,2.00
2019-02-08T00:08:34.335Z,1.80
2019-02-08T00:09:20.718Z,1.75
2019-02-08T00:10:07.160Z,1.72
2019-02-08T00:10:53.109Z,1.87
2019-02-08T00:11:39.300Z,1.92
2019-02-08T00:12:25.609Z,1.72
2019-02-08T00:13:11.295Z,1.80
2019-02-08T00:13:57.527Z,1.62
2019-02-08T00:14:43.825Z,2.20
2019-02-08T00:15:30.252Z,1.57
2019-02-08T00:16:16.401Z,1.98
2019-02-08T00:17:02.889Z,2.00
2019-02-08T00:17:49.268Z,1.80
2019-02-08T00:18:35.170Z,2.33
2019-02-08T00:19:22.157Z,1.70
2019-02-08T00:20:08.505Z,2.00
2019-02-08T00:20:54.599Z,2.12
2019-02-08T00:21:40.752Z,1.80
2019-02-08T00:22:26.893Z,1.70
2019-02-08T00:23:13.095Z,2.02
2019-02-08T00:23:59.293Z,2.10
2019-02-08T00:24:45.472Z,1.92
2019-02-08T00:25:31.607Z,1.77
2019-02-08T00:26:17.841Z,1.57
2019-02-08T00:27:04.356Z,1.95
2019-02-08T00:27:50.392Z,2.37
2019-02-08T00:28:36.806Z,1.80
2019-02-08T00:29:22.656Z,2.20
2019-02-08T00:30:13.365Z,2.08
2019-02-08T00:30:59.299Z,2.50
2019-02-08T00:31:45.463Z,2.15
2019-02-08T00:32:31.796Z,2.00
2019-02-08T00:33:17.841Z,1.82
2019-02-08T00:34:03.892Z,1.87
2019-02-08T00:34:49.843Z,1.77
2019-02-08T00:35:35.710Z,2.05
2019-02-08T00:36:22.013Z,2.10
2019-02-08T00:37:08.235Z,1.82
2019-02-08T00:37:54.569Z,1.80
2019-02-08T00:38:40.920Z,1.65
2019-02-08T00:39:27.237Z,2.40
2019-02-08T00:40:14.833Z,1.87
2019-02-08T00:41:00.825Z,2.00
2019-02-08T00:41:46.913Z,1.75
2019-02-08T00:42:33.192Z,1.87
2019-02-08T00:43:19.360Z,2.60
2019-02-08T00:44:05.051Z,3.00
2019-02-08T00:44:50.742Z,1.82
2019-02-08T00:45:36.868Z,1.98
2019-02-08T00:46:23.124Z,2.08
2019-02-08T00:47:09.203Z,2.60
2019-02-08T00:47:55.354Z,1.90
2019-02-08T00:48:41.661Z,2.22
2019-02-08T00:49:27.749Z,1.65
2019-02-08T00:50:18.760Z,1.65
2019-02-08T00:51:04.680Z,1.55
2019-02-08T00:51:50.823Z,2.65
2019-02-08T00:52:37.137Z,1.90
2019-02-08T00:53:23.009Z,1.90
2019-02-08T00:54:09.032Z,2.52
2019-02-08T00:54:54.774Z,2.20
2019-02-08T00:55:40.966Z,1.70
2019-02-08T00:56:26.641Z,2.42
2019-02-08T00:57:12.401Z,2.17
2019-02-08T00:57:58.156Z,1.75
2019-02-08T00:58:44.416Z,2.22
2019-02-08T00:59:30.964Z,1.80
2019-02-08T01:00:18.015Z,1.92
2019-02-08T01:01:04.499Z,1.98
2019-02-08T01:01:50.540Z,1.80
2019-02-08T01:02:36.424Z,1.72
2019-02-08T01:03:22.300Z,1.70
2019-02-08T01:04:08.440Z,1.75
2019-02-08T01:04:54.698Z,2.37
2019-02-08T01:05:40.919Z,1.92
2019-02-08T01:06:27.110Z,1.85
2019-02-08T01:07:12.758Z,1.92
2019-02-08T01:07:59.061Z,1.95
2019-02-08T01:08:45.222Z,1.85
2019-02-08T01:09:32.514Z,2.12
2019-02-08T01:10:21.701Z,2.00
2019-02-08T01:11:07.648Z,2.40
2019-02-08T01:11:53.721Z,1.87
2019-02-08T01:12:39.911Z,1.80
2019-02-08T01:13:25.983Z,1.80
2019-02-08T01:14:12.371Z,1.90
2019-02-08T01:14:58.635Z,2.08
2019-02-08T01:15:44.884Z,1.90
2019-02-08T01:16:30.579Z,2.12
2019-02-08T01:17:16.320Z,1.60
2019-02-08T01:18:02.372Z,2.77
2019-02-08T01:18:48.348Z,2.42
2019-02-08T01:19:34.182Z,2.25
2019-02-08T01:20:20.957Z,2.62
2019-02-08T01:21:07.291Z,3.08
2019-02-08T01:21:53.867Z,2.20
2019-02-08T01:22:39.662Z,1.55
2019-02-08T01:23:25.821Z,2.10
2019-02-08T01:24:11.870Z,2.45
2019-02-08T01:24:57.798Z,1.77
2019-02-08T01:25:43.491Z,2.08
2019-02-08T01:26:29.181Z,1.90
2019-02-08T01:27:15.341Z,1.98
2019-02-08T01:28:01.112Z,1.82
2019-02-08T01:28:47.077Z,1.52
2019-02-08T01:29:33.250Z,1.72
2019-02-08T01:30:21.625Z,2.20
2019-02-08T01:31:08.839Z,2.05
2019-02-08T01:31:56.435Z,1.87
2019-02-08T01:32:42.858Z,1.72
2019-02-08T01:33:28.821Z,2.05
2019-02-08T01:34:15.143Z,1.70
2019-02-08T01:35:01.418Z,2.05
2019-02-08T01:35:47.609Z,1.77
2019-02-08T01:36:33.327Z,1.52
2019-02-08T01:37:19.062Z,1.87
2019-02-08T01:38:04.818Z,2.10
2019-02-08T01:38:50.746Z,1.98
2019-02-08T01:39:36.899Z,1.45
2019-02-08T01:40:28.383Z,2.20
2019-02-08T01:41:14.434Z,1.85
2019-02-08T01:42:00.211Z,1.62
2019-02-08T01:42:45.951Z,1.70
2019-02-08T01:43:31.823Z,1.60
2019-02-08T01:44:17.646Z,1.95
2019-02-08T01:45:04.921Z,1.62
2019-02-08T01:45:51.119Z,1.77
2019-02-08T01:46:36.769Z,1.80
2019-02-08T01:47:22.812Z,1.98
2019-02-08T01:48:08.932Z,2.00
2019-02-08T01:48:55.041Z,1.75
2019-02-08T01:49:40.747Z,2.10
2019-02-08T01:50:27.899Z,1.62
2019-02-08T01:51:14.077Z,1.98
2019-02-08T01:52:00.262Z,1.75
2019-02-08T01:52:45.976Z,1.70
2019-02-08T01:53:32.205Z,1.75
2019-02-08T01:54:18.631Z,1.42
2019-02-08T01:55:05.378Z,1.95
2019-02-08T01:55:51.358Z,1.52
2019-02-08T01:56:37.007Z,1.50
2019-02-08T01:57:22.820Z,1.80
2019-02-08T01:58:09.023Z,1.67
2019-02-08T01:58:54.855Z,1.80
2019-02-08T01:59:40.997Z,2.08
2019-02-08T02:00:32.600Z,1.92
2019-02-08T02:01:18.737Z,2.30
2019-02-08T02:02:05.040Z,1.92
2019-02-08T02:02:51.205Z,1.72
2019-02-08T02:03:37.416Z,1.82
2019-02-08T02:04:23.198Z,1.60
2019-02-08T02:05:09.096Z,1.87
2019-02-08T02:05:55.187Z,1.87
2019-02-08T02:06:41.429Z,1.60
2019-02-08T02:07:27.897Z,2.02
2019-02-08T02:08:14.128Z,1.40
2019-02-08T02:09:00.259Z,1.62
2019-02-08T02:09:46.254Z,2.10
2019-02-08T02:10:34.315Z,1.82
2019-02-08T02:11:20.531Z,2.02
2019-02-08T02:12:06.516Z,1.80
2019-02-08T02:12:52.735Z,1.50
2019-02-08T02:13:38.825Z,1.60
2019-02-08T02:14:24.998Z,1.98
2019-02-08T02:15:11.078Z,1.27
2019-02-08T02:15:56.810Z,1.90
2019-02-08T02:16:43.057Z,1.62
2019-02-08T02:17:29.365Z,1.80
2019-02-08T02:18:15.893Z,1.67
2019-02-08T02:19:01.976Z,1.50
2019-02-08T02:19:47.839Z,1.67
2019-02-08T02:20:35.789Z,2.15
2019-02-08T02:21:21.708Z,2.10
2019-02-08T02:22:07.518Z,1.65
2019-02-08T02:22:53.783Z,1.40
2019-02-08T02:23:39.719Z,1.90
2019-02-08T02:24:25.657Z,1.72
2019-02-08T02:25:12.579Z,1.62
2019-02-08T02:25:58.748Z,2.02
2019-02-08T02:26:45.104Z,1.82
2019-02-08T02:27:31.523Z,1.30
2019-02-08T02:28:17.696Z,2.02
2019-02-08T02:29:03.841Z,2.05
2019-02-08T02:29:49.799Z,2.08
2019-02-08T02:30:39.367Z,1.75
2019-02-08T02:31:25.711Z,1.90
2019-02-08T02:32:11.581Z,1.82
2019-02-08T02:32:57.988Z,1.75
2019-02-08T02:33:43.877Z,1.82
2019-02-08T02:34:30.103Z,1.87
2019-02-08T02:35:16.857Z,1.90
2019-02-08T02:36:03.615Z,1.55
2019-02-08T02:36:49.768Z,1.82
2019-02-08T02:37:35.481Z,1.90
2019-02-08T02:38:21.179Z,2.30
2019-02-08T02:39:08.174Z,1.72
2019-02-08T02:39:54.027Z,1.77
2019-02-08T02:40:39.627Z,1.80
2019-02-08T02:41:25.364Z,1.75
2019-02-08T02:42:11.500Z,1.60
2019-02-08T02:42:57.797Z,1.77
2019-02-08T02:43:43.863Z,1.62
2019-02-08T02:44:29.783Z,1.82
2019-02-08T02:45:21.423Z,1.57
2019-02-08T02:46:07.574Z,1.72
2019-02-08T02:46:53.812Z,1.87
2019-02-08T02:47:39.842Z,1.90
2019-02-08T02:48:26.150Z,1.70
2019-02-08T02:49:12.287Z,1.60
2019-02-08T02:49:58.226Z,1.72
2019-02-08T02:50:44.271Z,1.42
2019-02-08T02:51:30.073Z,1.72
2019-02-08T02:52:16.614Z,1.80
2019-02-08T02:53:02.751Z,2.62
2019-02-08T02:53:48.789Z,1.70
2019-02-08T02:54:35.040Z,1.90
2019-02-08T02:55:22.619Z,1.57
2019-02-08T02:56:08.371Z,1.45
2019-02-08T02:56:54.676Z,1.85
2019-02-08T02:57:40.665Z,1.55
2019-02-08T02:58:26.734Z,1.70
2019-02-08T02:59:12.900Z,1.82
2019-02-08T02:59:58.632Z,2.15
2019-02-08T03:00:46.798Z,2.10
2019-02-08T03:01:32.975Z,1.77
2019-02-08T03:02:18.959Z,1.52
2019-02-08T03:03:05.858Z,1.60
2019-02-08T03:03:51.693Z,1.70
2019-02-08T03:04:37.926Z,2.02
2019-02-08T03:05:24.103Z,1.90
2019-02-08T03:06:10.310Z,1.62
2019-02-08T03:06:56.331Z,1.60
2019-02-08T03:07:42.127Z,1.85
2019-02-08T03:08:28.372Z,1.98
2019-02-08T03:09:14.625Z,1.72
2019-02-08T03:10:00.391Z,2.02
2019-02-08T03:10:46.688Z,1.70
2019-02-08T03:11:33.083Z,2.10
2019-02-08T03:12:19.365Z,1.72
2019-02-08T03:13:07.505Z,1.65
2019-02-08T03:13:53.833Z,1.60
2019-02-08T03:14:39.938Z,1.92
2019-02-08T03:15:26.434Z,1.50
2019-02-08T03:16:12.531Z,1.65
2019-02-08T03:16:58.484Z,1.50
2019-02-08T03:17:44.975Z,2.00
2019-02-08T03:18:31.154Z,2.12
2019-02-08T03:19:16.868Z,2.20
2019-02-08T03:20:04.463Z,2.05
2019-02-08T03:20:50.604Z,1.62
2019-02-08T03:21:36.790Z,1.92
2019-02-08T03:22:22.944Z,1.80
2019-02-08T03:23:08.970Z,2.00
2019-02-08T03:23:54.974Z,1.82
2019-02-08T03:24:40.625Z,2.60
2019-02-08T03:25:26.647Z,1.98
2019-02-08T03:26:12.507Z,1.65
2019-02-08T03:26:58.430Z,1.82
2019-02-08T03:27:44.652Z,2.00
2019-02-08T03:28:30.708Z,1.40
2019-02-08T03:29:16.494Z,2.05
2019-02-08T03:30:05.924Z,2.02
2019-02-08T03:30:53.938Z,1.80
2019-02-08T03:31:39.672Z,1.67
2019-02-08T03:32:25.867Z,1.98
2019-02-08T03:33:12.266Z,2.02
2019-02-08T03:33:58.312Z,1.80
2019-02-08T03:34:44.698Z,2.00
2019-02-08T03:35:30.735Z,1.95
2019-02-08T03:36:16.750Z,1.70
2019-02-08T03:37:03.162Z,2.10
2019-02-08T03:37:49.851Z,2.40
2019-02-08T03:38:36.215Z,1.75
2019-02-08T03:39:22.230Z,1.95
2019-02-08T03:40:10.530Z,2.12
2019-02-08T03:40:56.652Z,2.08
2019-02-08T03:41:42.905Z,2.05
2019-02-08T03:42:29.063Z,1.45
2019-02-08T03:43:15.594Z,2.00
2019-02-08T03:44:01.392Z,1.98
2019-02-08T03:44:47.528Z,2.05
2019-02-08T03:45:36.704Z,2.65
2019-02-08T03:46:22.775Z,2.12
2019-02-08T03:47:08.423Z,2.02
2019-02-08T03:47:54.683Z,2.08
2019-02-08T03:48:40.736Z,2.17
2019-02-08T03:49:26.852Z,2.22
2019-02-08T03:50:14.564Z,2.22
2019-02-08T03:51:00.797Z,2.02
2019-02-08T03:51:46.732Z,2.27
2019-02-08T03:52:32.387Z,2.12
2019-02-08T03:53:18.632Z,2.45
2019-02-08T03:54:04.608Z,2.10
2019-02-08T03:54:53.236Z,2.22
2019-02-08T03:55:39.243Z,1.60
2019-02-08T03:56:25.332Z,2.40
2019-02-08T03:57:11.500Z,2.00
2019-02-08T03:57:57.227Z,1.95
2019-02-08T03:58:42.934Z,2.47
2019-02-08T03:59:28.830Z,2.20
2019-02-08T04:00:23.158Z,2.40
2019-02-08T04:01:10.486Z,2.40
2019-02-08T04:01:56.538Z,2.67
2019-02-08T04:02:42.738Z,2.83
2019-02-08T04:03:28.557Z,2.17
2019-02-08T04:04:15.551Z,2.67
2019-02-08T04:05:01.767Z,2.67
2019-02-08T04:05:47.779Z,2.60
2019-02-08T04:06:33.447Z,2.70
2019-02-08T04:07:19.315Z,2.52
2019-02-08T04:08:05.180Z,2.37
2019-02-08T04:08:51.335Z,2.58
2019-02-08T04:09:37.167Z,2.70
2019-02-08T04:10:23.527Z,2.90
2019-02-08T04:11:09.692Z,2.27
2019-02-08T04:11:56.011Z,2.55
2019-02-08T04:12:41.667Z,2.75
2019-02-08T04:13:27.355Z,2.45
2019-02-08T04:14:13.079Z,2.62
2019-02-08T04:14:59.111Z,2.17
2019-02-08T04:15:45.182Z,3.17
2019-02-08T04:16:31.308Z,2.37
2019-02-08T04:17:17.445Z,2.52
2019-02-08T04:18:03.903Z,2.85
2019-02-08T04:18:49.861Z,2.37
2019-02-08T04:19:36.060Z,2.52
2019-02-08T04:20:25.904Z,3.10
2019-02-08T04:21:11.795Z,2.50
2019-02-08T04:21:57.415Z,2.98
2019-02-08T04:22:43.135Z,2.45
2019-02-08T04:23:29.275Z,2.70
2019-02-08T04:24:15.437Z,3.02
2019-02-08T04:25:01.198Z,3.55
2019-02-08T04:25:46.984Z,2.70
2019-02-08T04:26:32.721Z,2.70
2019-02-08T04:27:18.564Z,2.65
2019-02-08T04:28:04.374Z,2.37
2019-02-08T04:28:50.507Z,2.70
2019-02-08T04:29:36.666Z,2.52
2019-02-08T04:30:24.454Z,2.42
2019-02-08T04:31:10.497Z,2.30
2019-02-08T04:31:56.737Z,2.12
2019-02-08T04:32:42.430Z,2.62
2019-02-08T04:33:28.627Z,2.95
2019-02-08T04:34:14.545Z,2.50
2019-02-08T04:35:00.566Z,3.25
2019-02-08T04:35:47.027Z,2.42
2019-02-08T04:36:33.105Z,2.72
2019-02-08T04:37:19.071Z,2.50
2019-02-08T04:38:04.883Z,2.42
2019-02-08T04:38:50.944Z,2.40
2019-02-08T04:39:36.633Z,2.65
2019-02-08T04:40:22.389Z,2.30
2019-02-08T04:41:08.093Z,2.25
2019-02-08T04:41:54.329Z,2.50
2019-02-08T04:42:40.233Z,2.55
2019-02-08T04:43:26.466Z,2.77
2019-02-08T04:44:12.143Z,2.55
2019-02-08T04:44:57.917Z,3.08
2019-02-08T04:45:43.853Z,3.15
2019-02-08T04:46:30.036Z,2.70
2019-02-08T04:47:15.634Z,2.45
2019-02-08T04:48:01.294Z,2.95
2019-02-08T04:48:47.058Z,2.47
2019-02-08T04:49:33.227Z,2.92
2019-02-08T04:50:20.805Z,2.27
2019-02-08T04:51:06.706Z,2.95
2019-02-08T04:51:52.433Z,2.60
2019-02-08T04:52:38.096Z,2.80
2019-02-08T04:53:24.292Z,3.15
2019-02-08T04:54:10.081Z,2.90
2019-02-08T04:54:55.839Z,3.00
2019-02-08T04:55:42.261Z,2.75
2019-02-08T04:56:28.420Z,2.40
2019-02-08T04:57:14.598Z,2.87
2019-02-08T04:58:00.896Z,2.55
2019-02-08T04:58:47.066Z,2.55
2019-02-08T04:59:33.168Z,2.92
2019-02-08T05:00:24.856Z,2.92
2019-02-08T05:01:10.974Z,2.47
2019-02-08T05:01:57.141Z,2.40
2019-02-08T05:02:43.502Z,2.83
2019-02-08T05:03:29.544Z,2.58
2019-02-08T05:04:15.680Z,2.70
2019-02-08T05:05:01.355Z,2.83
2019-02-08T05:05:47.538Z,3.33
2019-02-08T05:06:33.275Z,3.45
2019-02-08T05:07:19.434Z,3.70
2019-02-08T05:08:05.318Z,2.92
2019-02-08T05:08:51.234Z,3.80
2019-02-08T05:09:36.850Z,4.00
2019-02-08T05:10:24.947Z,3.42
2019-02-08T05:11:10.631Z,3.92
2019-02-08T05:11:56.412Z,2.92
2019-02-08T05:12:42.700Z,3.40
2019-02-08T05:13:28.836Z,3.08
2019-02-08T05:14:14.485Z,3.52
2019-02-08T05:15:00.239Z,3.22
2019-02-08T05:15:46.012Z,2.90
2019-02-08T05:16:32.365Z,3.55
2019-02-08T05:17:19.161Z,2.98
2019-02-08T05:18:05.463Z,3.12
2019-02-08T05:18:57.762Z,3.25
2019-02-08T05:19:43.816Z,3.27
2019-02-08T05:20:29.719Z,3.27
2019-02-08T05:21:15.835Z,3.00
2019-02-08T05:22:01.655Z,3.30
2019-02-08T05:22:47.497Z,3.42
2019-02-08T05:23:33.712Z,3.62
2019-02-08T05:24:19.959Z,3.52
2019-02-08T05:25:06.489Z,7.25
2019-02-08T05:25:52.306Z,3.67
2019-02-08T05:26:37.979Z,4.87
2019-02-08T05:27:23.743Z,3.72
2019-02-08T05:28:09.921Z,3.62
2019-02-08T05:28:56.104Z,3.25
2019-02-08T05:29:41.764Z,3.22
2019-02-08T05:30:30.183Z,3.12
2019-02-08T05:31:15.936Z,3.72
2019-02-08T05:32:02.117Z,3.60
2019-02-08T05:32:47.771Z,3.27
2019-02-08T05:33:33.398Z,3.98
2019-02-08T05:34:19.066Z,3.37
2019-02-08T05:35:05.692Z,3.92
2019-02-08T05:35:51.901Z,3.65
2019-02-08T05:36:38.180Z,3.70
2019-02-08T05:37:24.552Z,3.52
2019-02-08T05:38:10.699Z,3.60
2019-02-08T05:38:56.991Z,3.90
2019-02-08T05:39:43.235Z,4.25
2019-02-08T05:40:29.042Z,3.62
2019-02-08T05:41:15.194Z,3.22
2019-02-08T05:42:01.405Z,3.67
2019-02-08T05:42:47.242Z,3.20
2019-02-08T05:43:33.290Z,3.50
2019-02-08T05:44:19.459Z,3.72
2019-02-08T05:45:07.446Z,3.67
2019-02-08T05:45:53.315Z,3.47
2019-02-08T05:46:38.994Z,3.58
2019-02-08T05:47:25.103Z,3.30
2019-02-08T05:48:10.790Z,3.98
2019-02-08T05:48:56.545Z,3.52
2019-02-08T05:49:42.839Z,3.40
2019-02-08T05:50:28.936Z,3.67
2019-02-08T05:51:15.097Z,4.05
2019-02-08T05:52:01.227Z,3.95
2019-02-08T05:52:47.659Z,3.55
2019-02-08T05:53:33.634Z,3.47
2019-02-08T05:54:19.376Z,3.72
2019-02-08T05:55:06.026Z,3.30
2019-02-08T05:55:51.906Z,3.40
2019-02-08T05:56:38.117Z,3.62
2019-02-08T05:57:23.952Z,3.83
2019-02-08T05:58:09.676Z,3.55
2019-02-08T05:58:55.381Z,3.35
2019-02-08T05:59:41.560Z,3.50
2019-02-08T06:00:58.643Z,3.60
2019-02-08T06:01:44.675Z,3.95
2019-02-08T06:02:30.837Z,3.52
2019-02-08T06:03:17.050Z,3.62
2019-02-08T06:04:03.812Z,3.20
2019-02-08T06:04:49.680Z,3.77
2019-02-08T06:05:36.942Z,4.35
2019-02-08T06:06:23.137Z,3.67
2019-02-08T06:07:09.371Z,3.67
2019-02-08T06:07:55.504Z,3.85
2019-02-08T06:08:41.604Z,3.27
2019-02-08T06:09:27.832Z,3.77
2019-02-08T06:10:14.400Z,3.70
2019-02-08T06:11:00.409Z,4.12
2019-02-08T06:11:46.484Z,3.52
2019-02-08T06:12:32.567Z,4.17
2019-02-08T06:13:18.875Z,3.05
2019-02-08T06:14:05.010Z,3.58
2019-02-08T06:14:50.983Z,4.15
2019-02-08T06:15:37.288Z,3.10
2019-02-08T06:16:23.420Z,3.50
2019-02-08T06:17:09.606Z,3.83
2019-02-08T06:17:55.696Z,3.50
2019-02-08T06:18:41.843Z,3.12
2019-02-08T06:19:27.460Z,3.05
2019-02-08T06:20:14.976Z,3.47
2019-02-08T06:21:00.922Z,3.58
2019-02-08T06:21:47.119Z,3.35
2019-02-08T06:22:33.207Z,3.42
2019-02-08T06:23:18.939Z,3.83
2019-02-08T06:24:05.200Z,3.80
2019-02-08T06:24:51.366Z,3.80
2019-02-08T06:25:37.674Z,3.35
2019-02-08T06:26:25.658Z,2.95
2019-02-08T06:27:11.555Z,4.00
2019-02-08T06:27:57.312Z,3.40
2019-02-08T06:28:43.491Z,3.50
2019-02-08T06:29:29.222Z,3.90
2019-02-08T06:30:17.127Z,3.75
2019-02-08T06:31:03.370Z,3.72
2019-02-08T06:31:49.433Z,3.30
2019-02-08T06:32:35.675Z,3.27
2019-02-08T06:33:21.557Z,3.70
2019-02-08T06:34:08.045Z,3.62
2019-02-08T06:34:54.128Z,3.62
2019-02-08T06:35:40.380Z,3.52
2019-02-08T06:36:26.554Z,3.10
2019-02-08T06:37:12.195Z,3.58
2019-02-08T06:37:58.322Z,3.52
2019-02-08T06:38:44.347Z,3.55
2019-02-08T06:39:30.018Z,3.50
2019-02-08T06:40:17.906Z,3.17
2019-02-08T06:41:04.003Z,3.15
2019-02-08T06:41:51.959Z,3.10
2019-02-08T06:42:37.657Z,3.55
2019-02-08T06:43:23.918Z,3.40
2019-02-08T06:44:09.568Z,3.87
2019-02-08T06:44:55.690Z,3.58
2019-02-08T06:45:41.899Z,3.37
2019-02-08T06:46:28.016Z,3.33
2019-02-08T06:47:13.748Z,3.30
2019-02-08T06:47:59.791Z,3.77
2019-02-08T06:48:45.838Z,3.50
2019-02-08T06:49:31.755Z,3.20
2019-02-08T06:50:19.643Z,3.25
2019-02-08T06:51:05.679Z,3.67
2019-02-08T06:51:51.543Z,3.60
2019-02-08T06:52:37.772Z,3.50
2019-02-08T06:53:23.610Z,3.47
2019-02-08T06:54:09.985Z,3.45
2019-02-08T06:54:55.886Z,3.00
2019-02-08T06:55:42.003Z,3.65
2019-02-08T06:56:46.039Z,3.50
2019-02-08T06:57:50.202Z,3.22
2019-02-08T06:58:59.573Z,3.47
2019-02-08T07:00:10.900Z,3.22
2019-02-08T07:01:16.491Z,3.27
2019-02-08T07:02:17.653Z,3.10
2019-02-08T07:03:23.766Z,3.35
2019-02-08T07:04:28.068Z,2.83
2019-02-08T07:05:24.409Z,2.83
2019-02-08T07:06:44.942Z,3.22
2019-02-08T07:07:37.442Z,2.95
2019-02-08T07:08:45.817Z,3.80
2019-02-08T07:09:57.717Z,3.20
2019-02-08T07:11:05.854Z,3.40
2019-02-08T07:12:08.775Z,3.10
2019-02-08T07:13:29.596Z,3.42
2019-02-08T07:14:24.644Z,3.70
2019-02-08T07:15:33.218Z,2.85
2019-02-08T07:16:41.840Z,3.20
2019-02-08T07:17:36.878Z,2.80
2019-02-08T07:18:30.010Z,3.15
2019-02-08T07:19:27.331Z,2.60
2019-02-08T07:20:32.923Z,3.00
2019-02-08T07:21:32.824Z,3.35
2019-02-08T07:22:32.900Z,2.67
2019-02-08T07:23:27.489Z,2.90
2019-02-08T07:24:35.704Z,3.33
2019-02-08T07:25:33.266Z,3.20
2019-02-08T07:26:37.544Z,3.62
2019-02-08T07:27:32.810Z,3.12
2019-02-08T07:28:38.476Z,2.92
2019-02-08T07:29:52.868Z,3.05
2019-02-08T07:31:01.686Z,2.80
2019-02-08T07:32:13.091Z,2.70
2019-02-08T07:33:15.887Z,2.70
2019-02-08T07:34:36.696Z,2.90
2019-02-08T07:35:40.807Z,3.52
2019-02-08T07:37:00.752Z,2.95
2019-02-08T07:38:04.946Z,2.42
2019-02-08T07:39:02.734Z,2.33
2019-02-08T07:40:11.397Z,3.17
2019-02-08T07:41:24.551Z,2.80
2019-02-08T07:42:36.624Z,2.62
2019-02-08T07:43:51.376Z,3.40
2019-02-08T07:44:48.620Z,3.12
2019-02-08T07:46:01.770Z,2.60
2019-02-08T07:47:16.727Z,2.90
2019-02-08T07:48:31.235Z,3.10
2019-02-08T07:49:34.856Z,2.75
2019-02-08T07:50:46.053Z,3.47
2019-02-08T07:51:54.950Z,2.83
2019-02-08T07:52:59.318Z,2.92
2019-02-08T07:54:13.598Z,2.70
2019-02-08T07:55:25.949Z,2.92
2019-02-08T07:56:20.441Z,2.60
2019-02-08T07:57:24.314Z,2.92
2019-02-08T07:58:42.058Z,2.83
2019-02-08T07:59:39.927Z,3.10
2019-02-08T08:00:53.516Z,2.42
2019-02-08T08:02:01.639Z,2.83
2019-02-08T08:03:10.003Z,2.75
2019-02-08T08:04:15.305Z,2.42
2019-02-08T08:05:11.859Z,2.70
2019-02-08T08:06:18.041Z,2.72
2019-02-08T08:07:29.565Z,3.22
2019-02-08T08:08:23.938Z,2.70
2019-02-08T08:09:28.317Z,3.10
2019-02-08T08:10:30.384Z,3.10
2019-02-08T08:11:39.166Z,2.80
2019-02-08T08:12:45.272Z,2.37
2019-02-08T08:13:36.916Z,2.60
2019-02-08T08:14:37.830Z,2.55
2019-02-08T08:15:49.718Z,2.35
2019-02-08T08:16:44.136Z,2.30
2019-02-08T08:17:51.886Z,2.80
2019-02-08T08:18:48.695Z,2.25
2019-02-08T08:19:56.698Z,2.47
2019-02-08T08:21:05.253Z,2.62
2019-02-08T08:22:09.100Z,2.10
2019-02-08T08:23:07.828Z,2.00
2019-02-08T08:24:04.833Z,2.30
2019-02-08T08:25:17.932Z,2.33
2019-02-08T08:26:22.189Z,2.30
2019-02-08T08:27:16.818Z,2.70
2019-02-08T08:28:17.584Z,2.20
2019-02-08T08:29:28.692Z,2.60
2019-02-08T08:30:40.296Z,2.50
2019-02-08T08:31:33.059Z,2.52
2019-02-08T08:32:45.741Z,2.55
2019-02-08T08:33:49.492Z,2.27
2019-02-08T08:35:01.115Z,2.60
2019-02-08T08:36:34.011Z,2.42
2019-02-08T08:38:03.127Z,2.12
2019-02-08T08:39:33.942Z,2.37
2019-02-08T08:41:01.207Z,2.27
2019-02-08T08:42:27.744Z,2.08
2019-02-08T08:43:51.241Z,1.87
2019-02-08T08:45:31.095Z,2.12
2019-02-08T08:46:51.993Z,1.62
2019-02-08T08:48:04.993Z,1.77
2019-02-08T08:49:33.107Z,2.45
2019-02-08T08:50:53.282Z,1.90
2019-02-08T08:52:12.438Z,1.92
2019-02-08T08:53:25.454Z,1.87
2019-02-08T08:54:51.776Z,2.00
2019-02-08T08:56:01.987Z,2.12
2019-02-08T08:57:15.054Z,2.15
2019-02-08T08:58:38.231Z,2.10
2019-02-08T09:00:03.022Z,2.02
2019-02-08T09:01:13.444Z,2.17
2019-02-08T09:02:51.690Z,2.00
2019-02-08T09:04:17.929Z,2.33
2019-02-08T09:05:16.220Z,2.08
2019-02-08T09:06:45.244Z,2.02
2019-02-08T09:08:05.151Z,1.95
2019-02-08T09:09:51.191Z,1.72
2019-02-08T09:11:18.968Z,2.12
2019-02-08T09:12:51.256Z,1.98
2019-02-08T09:14:13.777Z,1.60
2019-02-08T09:15:50.503Z,1.90
2019-02-08T09:17:21.198Z,2.22
2019-02-08T09:18:59.552Z,1.75
2019-02-08T09:20:41.388Z,1.70
2019-02-08T09:22:23.947Z,1.72
2019-02-08T09:23:51.923Z,1.60
2019-02-08T09:25:07.371Z,1.40
2019-02-08T09:26:31.167Z,1.52
2019-02-08T09:27:57.983Z,1.20
2019-02-08T09:29:29.615Z,1.50
2019-02-08T09:30:52.195Z,1.27
2019-02-08T09:32:11.721Z,1.50
2019-02-08T09:33:35.727Z,1.65
2019-02-08T09:35:18.260Z,1.40
2019-02-08T09:36:53.657Z,1.50
2019-02-08T09:37:56.351Z,1.40
2019-02-08T09:39:39.326Z,1.30
2019-02-08T09:41:16.195Z,1.57
2019-02-08T09:42:34.276Z,1.20
2019-02-08T09:44:05.084Z,1.42
2019-02-08T09:45:41.150Z,1.10
2019-02-08T09:47:20.731Z,1.32
2019-02-08T09:48:51.717Z,1.15
2019-02-08T09:50:34.163Z,1.00
2019-02-08T09:52:15.192Z,1.15
2019-02-08T09:53:44.763Z,1.50
2019-02-08T09:55:13.514Z,1.50
2019-02-08T09:56:37.175Z,1.17
2019-02-08T09:58:20.092Z,1.40
2019-02-08T09:59:24.532Z,1.47
2019-02-08T10:01:04.690Z,1.27
2019-02-08T10:02:31.259Z,1.32
2019-02-08T10:03:31.603Z,1.52
2019-02-08T10:05:36.214Z,1.37
2019-02-08T10:06:41.630Z,1.45
2019-02-08T10:08:45.941Z,1.30
2019-02-08T10:10:15.686Z,1.10
2019-02-08T10:11:15.831Z,0.98
2019-02-08T10:12:18.384Z,1.45
2019-02-08T10:14:19.507Z,1.32
2019-02-08T10:15:20.040Z,1.60
2019-02-08T10:16:22.696Z,1.10
2019-02-08T10:17:27.341Z,1.57
2019-02-08T10:18:30.792Z,1.20
2019-02-08T10:19:30.333Z,1.72
2019-02-08T10:21:37.248Z,1.10
2019-02-08T10:22:38.791Z,1.42
2019-02-08T10:24:11.086Z,1.10
2019-02-08T10:25:37.505Z,0.95
2019-02-08T10:26:38.186Z,1.20
2019-02-08T10:28:45.237Z,1.27
2019-02-08T10:29:49.135Z,1.00
2019-02-08T10:30:49.634Z,1.20
2019-02-08T10:31:50.091Z,0.90
2019-02-08T10:33:19.578Z,1.17
2019-02-08T10:34:46.092Z,1.07
2019-02-08T10:35:45.817Z,1.10
2019-02-08T10:37:49.740Z,1.22
2019-02-08T10:38:53.199Z,1.00
2019-02-08T10:40:59.339Z,0.90
2019-02-08T10:42:25.876Z,1.37
2019-02-08T10:43:27.386Z,1.20
2019-02-08T10:44:31.343Z,1.20
2019-02-08T10:46:38.410Z,0.90
2019-02-08T10:47:41.367Z,1.50
2019-02-08T10:49:44.635Z,1.17
2019-02-08T10:50:45.036Z,1.10
2019-02-08T10:51:48.519Z,1.12
2019-02-08T10:52:50.348Z,1.20
2019-02-08T10:53:53.305Z,1.37
2019-02-08T10:55:59.755Z,1.10
2019-02-08T10:57:00.642Z,1.10
2019-02-08T10:58:06.300Z,0.95
2019-02-08T11:00:11.230Z,1.07
2019-02-08T11:01:11.434Z,1.10
2019-02-08T11:02:11.881Z,1.10
2019-02-08T11:03:12.464Z,1.12
2019-02-08T11:04:12.876Z,1.40
2019-02-08T11:05:13.468Z,1.07
2019-02-08T11:06:17.479Z,0.90
2019-02-08T11:07:27.546Z,0.95
2019-02-08T11:08:23.068Z,0.70
2019-02-08T11:09:23.521Z,1.10
2019-02-08T11:11:33.075Z,0.88
2019-02-08T11:12:34.509Z,1.02
2019-02-08T11:13:34.683Z,1.17
2019-02-08T11:14:34.299Z,0.90
2019-02-08T11:15:35.787Z,0.70
2019-02-08T11:16:39.312Z,1.00
2019-02-08T11:17:42.732Z,0.95
2019-02-08T11:18:43.224Z,1.00
2019-02-08T11:19:42.821Z,0.85
2019-02-08T11:20:42.642Z,1.00
2019-02-08T11:21:44.352Z,0.95
2019-02-08T11:22:44.601Z,0.80
2019-02-08T11:23:44.355Z,0.70
2019-02-08T11:24:44.119Z,0.93
2019-02-08T11:25:43.827Z,1.10
2019-02-08T11:26:47.034Z,1.02
2019-02-08T11:27:46.906Z,1.10
2019-02-08T11:28:47.427Z,1.65
2019-02-08T11:29:47.024Z,0.95
2019-02-08T11:30:50.477Z,0.80
2019-02-08T11:31:49.996Z,0.90
2019-02-08T11:32:50.563Z,0.90
2019-02-08T11:33:50.144Z,0.88
2019-02-08T11:34:49.725Z,0.90
2019-02-08T11:35:49.478Z,0.82
2019-02-08T11:36:36.982Z,0.88
2019-02-08T11:37:43.961Z,0.90
2019-02-08T11:38:44.244Z,0.75
2019-02-08T11:39:44.925Z,0.90
2019-02-08T11:40:45.343Z,1.10
2019-02-08T11:41:44.832Z,1.17
2019-02-08T11:42:44.371Z,1.15
2019-02-08T11:43:43.892Z,0.90
2019-02-08T11:44:44.368Z,1.00
2019-02-08T11:45:44.017Z,1.10
2019-02-08T11:46:43.615Z,1.25
2019-02-08T11:47:44.164Z,0.90
2019-02-08T11:48:43.764Z,0.80
2019-02-08T11:49:45.296Z,1.17
2019-02-08T11:50:44.872Z,0.80
2019-02-08T11:51:44.554Z,1.02
2019-02-08T11:52:44.106Z,1.10
2019-02-08T11:53:43.755Z,0.98
2019-02-08T11:54:44.183Z,0.90
2019-02-08T11:55:43.983Z,0.90
2019-02-08T11:56:44.317Z,0.72
2019-02-08T11:57:44.711Z,0.90
2019-02-08T11:58:44.263Z,0.78
2019-02-08T11:59:44.724Z,0.60
2019-02-08T12:00:48.182Z,0.90
2019-02-08T12:01:49.153Z,0.80
2019-02-08T12:02:49.616Z,0.80
2019-02-08T12:03:49.198Z,0.80
2019-02-08T12:04:48.960Z,0.68
2019-02-08T12:05:49.238Z,0.60
2019-02-08T12:06:49.764Z,0.62
2019-02-08T12:07:50.280Z,0.70
2019-02-08T12:08:52.903Z,0.78
2019-02-08T12:09:53.749Z,0.95